Sakarya, Turkey
Current Conditions -  °F | °C
As of 3:50 AM on Saturday 20 Dec 2014 (Local Time) from LTBQ Reporting Station
Haze Haze  
Wind Chill: 34°   Ceiling: Unl
Heat Index: 34°   Visibility: 2.5mi
Dew Point: 34°   Wind: 1mph
Humidity: 100%   Direction: 290°WNW
Pressure: 30.18"   Gusts: NA
Location:  40.75°N, 30.45°E
Report Text: LTBQ 200050Z 29001KT 4000 BR SCT016 01/01 Q1022 TEMPO FM0200 1600 BCFG BKN007
Loading
Personal Weather Stations






























Interactive Weather Map New forecast layout! Learn more

10-Day Weather Forecast

Advertisements
Track Severe Weather on mobile